Time;durP1;ratioP1;P1;durP2;ratioP2;P2;SDS_P1;SDS_P2;PMS_P1;PMS_P2;Temp;Humidity;BMP_temperature;BMP_pressure;BME280_temperature;BME280_humidity;BME280_pressure;Samples;Min_cycle;Max_cycle;Signal;HPM_P1;HPM_P2
2023/03/20 00:04:55;;;;;;;1.75;1.35;;;;;;;;;;10156098;29;20050;-82
2023/03/20 00:09:58;;;;;;;1.58;1.15;;;;;;;;;;10160687;29;20052;-83
2023/03/20 00:15:07;;;;;;;1.58;1.27;;;;;;;;;;10160352;29;20046;-84
2023/03/20 00:20:15;;;;;;;1.58;1.40;;;;;;;;;;10154317;29;20051;-87
2023/03/20 00:25:22;;;;;;;1.48;1.27;;;;;;;;;;10164623;29;20115;-82
2023/03/20 00:30:31;;;;;;;1.58;1.23;;;;;;;;;;10158980;29;20050;-81
2023/03/20 00:35:35;;;;;;;1.20;1.08;;;;;;;;;;10161396;29;20488;-81
2023/03/20 00:40:38;;;;;;;1.42;1.30;;;;;;;;;;10156729;29;20082;-82
2023/03/20 00:45:45;;;;;;;2.47;1.40;;;;;;;;;;10157569;29;20040;-82
2023/03/20 00:50:49;;;;;;;1.63;1.40;;;;;;;;;;10158441;29;20050;-82
2023/03/20 00:55:52;;;;;;;2.53;1.42;;;;;;;;;;10153674;29;20044;-81
2023/03/20 01:00:58;;;;;;;1.98;1.50;;;;;;;;;;10160284;29;20436;-81
2023/03/20 01:06:01;;;;;;;2.80;1.80;;;;;;;;;;10150242;29;20151;-82
2023/03/20 01:11:05;;;;;;;2.33;1.60;;;;;;;;;;10153777;29;20080;-82
2023/03/20 01:16:20;;;;;;;1.98;1.52;;;;;;;;;;10141667;29;20064;-81
2023/03/20 01:21:23;;;;;;;2.85;1.63;;;;;;;;;;10141548;29;20054;-81
2023/03/20 01:26:32;;;;;;;1.92;1.45;;;;;;;;;;10141315;29;20350;-84
2023/03/20 01:31:37;;;;;;;2.33;1.48;;;;;;;;;;10158055;29;20455;-84
2023/03/20 01:36:40;;;;;;;3.17;1.98;;;;;;;;;;10156756;29;20046;-84
2023/03/20 01:41:45;;;;;;;2.58;1.92;;;;;;;;;;10149758;29;20044;-82
2023/03/20 01:46:53;;;;;;;2.83;1.55;;;;;;;;;;10166603;29;20094;-82
2023/03/20 01:51:57;;;;;;;4.93;3.00;;;;;;;;;;10167676;29;20107;-82
2023/03/20 01:57:10;;;;;;;9.20;5.57;;;;;;;;;;10160268;29;20058;-82
2023/03/20 02:02:21;;;;;;;12.55;7.72;;;;;;;;;;10149452;29;20058;-82
2023/03/20 02:07:25;;;;;;;20.20;12.88;;;;;;;;;;10146023;29;20468;-82
2023/03/20 02:12:41;;;;;;;16.65;11.45;;;;;;;;;;10157476;29;20059;-82
2023/03/20 02:17:48;;;;;;;20.30;13.55;;;;;;;;;;10154733;29;20487;-83
2023/03/20 02:23:23;;;;;;;14.82;9.75;;;;;;;;;;10153378;29;20119;-82
2023/03/20 02:29:06;;;;;;;19.00;13.32;;;;;;;;;;10155454;29;20681;-85
2023/03/20 02:34:42;;;;;;;27.42;16.77;;;;;;;;;;10153662;29;20055;-88
2023/03/20 02:40:07;;;;;;;20.63;12.82;;;;;;;;;;10130399;29;20071;-86
2023/03/20 02:45:17;;;;;;;15.00;9.55;;;;;;;;;;10148156;29;20135;-86
2023/03/20 02:50:32;;;;;;;19.50;11.35;;;;;;;;;;10152429;29;20119;-86
2023/03/20 02:55:42;;;;;;;24.92;15.30;;;;;;;;;;10149999;29;20043;-85
2023/03/20 03:00:53;;;;;;;25.73;15.15;;;;;;;;;;10157065;29;20044;-86
2023/03/20 03:06:01;;;;;;;18.75;12.57;;;;;;;;;;10157267;29;20124;-88
2023/03/20 03:11:08;;;;;;;34.05;21.33;;;;;;;;;;10158110;29;20052;-85
2023/03/20 03:16:16;;;;;;;22.90;13.77;;;;;;;;;;10174175;29;20032;-85
2023/03/20 03:21:21;;;;;;;21.83;13.82;;;;;;;;;;10156381;29;20478;-88
2023/03/20 03:26:31;;;;;;;21.98;13.93;;;;;;;;;;10137650;29;20060;-87
2023/03/20 03:31:37;;;;;;;24.75;15.00;;;;;;;;;;10141157;29;20055;-87
2023/03/20 03:36:49;;;;;;;27.70;16.48;;;;;;;;;;10138972;29;20110;-87
2023/03/20 03:42:00;;;;;;;17.38;10.95;;;;;;;;;;10135144;29;20056;-84
2023/03/20 03:47:08;;;;;;;16.23;10.02;;;;;;;;;;10123083;29;20100;-86
2023/03/20 03:52:16;;;;;;;21.40;13.75;;;;;;;;;;10159768;29;20044;-87
2023/03/20 03:57:25;;;;;;;22.70;14.70;;;;;;;;;;10149507;29;20422;-86
2023/03/20 04:02:29;;;;;;;20.40;12.13;;;;;;;;;;10151430;29;20086;-85
2023/03/20 04:07:33;;;;;;;16.23;9.80;;;;;;;;;;10154329;29;20633;-86
2023/03/20 04:12:39;;;;;;;15.10;9.40;;;;;;;;;;10166967;29;20062;-86
2023/03/20 04:17:45;;;;;;;17.15;10.32;;;;;;;;;;10168605;29;20048;-84
2023/03/20 04:22:50;;;;;;;17.45;10.43;;;;;;;;;;10159272;29;20551;-84
2023/03/20 04:27:55;;;;;;;16.05;10.32;;;;;;;;;;10163232;29;20044;-84
2023/03/20 04:33:17;;;;;;;16.10;9.70;;;;;;;;;;10153199;29;20059;-85
2023/03/20 04:38:43;;;;;;;18.02;10.52;;;;;;;;;;10153099;29;20036;-84
2023/03/20 04:43:48;;;;;;;17.23;10.95;;;;;;;;;;10136031;29;20040;-82
2023/03/20 04:48:52;;;;;;;15.98;9.63;;;;;;;;;;10154226;29;20074;-82
2023/03/20 04:53:56;;;;;;;19.38;11.20;;;;;;;;;;10162142;29;20096;-81
2023/03/20 04:59:01;;;;;;;16.42;10.25;;;;;;;;;;10152736;29;20047;-82
2023/03/20 05:04:05;;;;;;;16.77;9.98;;;;;;;;;;10156279;29;20044;-81
2023/03/20 05:09:09;;;;;;;14.50;9.90;;;;;;;;;;10154362;29;20067;-82
2023/03/20 05:14:15;;;;;;;16.30;9.80;;;;;;;;;;10155362;29;20559;-82
2023/03/20 05:19:39;;;;;;;15.38;9.57;;;;;;;;;;10148774;29;20054;-83
2023/03/20 05:24:42;;;;;;;15.98;9.48;;;;;;;;;;10159308;29;20055;-83
2023/03/20 05:30:11;;;;;;;22.27;13.87;;;;;;;;;;10161349;29;20156;-86
2023/03/20 05:35:29;;;;;;;16.88;10.50;;;;;;;;;;10155839;29;20520;-88
2023/03/20 05:40:49;;;;;;;16.52;9.57;;;;;;;;;;10172871;29;20048;-88
2023/03/20 05:46:02;;;;;;;13.88;8.90;;;;;;;;;;10175729;29;20040;-88
2023/03/20 05:51:15;;;;;;;15.73;9.77;;;;;;;;;;10159708;29;20048;-84
2023/03/20 05:56:42;;;;;;;15.75;9.55;;;;;;;;;;10154471;29;20052;-80
2023/03/20 06:02:07;;;;;;;14.52;9.15;;;;;;;;;;10174660;29;20523;-82
2023/03/20 06:07:14;;;;;;;14.10;9.02;;;;;;;;;;10145940;29;20281;-80
2023/03/20 06:12:21;;;;;;;15.98;10.05;;;;;;;;;;10160802;29;20058;-83
2023/03/20 06:17:26;;;;;;;15.55;10.27;;;;;;;;;;10143224;29;20055;-86
2023/03/20 06:22:36;;;;;;;15.00;9.85;;;;;;;;;;10157376;29;20108;-85
2023/03/20 06:27:40;;;;;;;17.60;11.13;;;;;;;;;;10173030;29;20099;-82
2023/03/20 06:32:46;;;;;;;16.83;9.85;;;;;;;;;;10153740;29;20068;-81
2023/03/20 06:37:52;;;;;;;15.48;9.75;;;;;;;;;;10160940;29;20048;-83
2023/03/20 06:42:59;;;;;;;15.20;9.65;;;;;;;;;;10160664;29;20051;-84
2023/03/20 06:48:15;;;;;;;13.13;8.90;;;;;;;;;;10164439;29;20047;-86
2023/03/20 06:53:19;;;;;;;17.00;9.65;;;;;;;;;;10165584;29;20578;-85
2023/03/20 06:58:42;;;;;;;12.77;8.88;;;;;;;;;;10170066;29;20055;-83
2023/03/20 07:03:49;;;;;;;12.52;8.18;;;;;;;;;;10146950;29;20044;-86
2023/03/20 07:09:00;;;;;;;14.05;9.00;;;;;;;;;;10164040;29;20162;-84
2023/03/20 07:14:04;;;;;;;13.63;8.32;;;;;;;;;;10148087;29;20052;-86
2023/03/20 07:19:40;;;;;;;11.77;7.97;;;;;;;;;;10175562;29;20855;-84
2023/03/20 07:24:44;;;;;;;13.95;8.40;;;;;;;;;;10169408;29;20051;-85
2023/03/20 07:29:50;;;;;;;12.52;8.35;;;;;;;;;;10154559;29;20035;-84
2023/03/20 07:34:56;;;;;;;16.85;9.43;;;;;;;;;;10167070;29;20094;-84
2023/03/20 07:40:00;;;;;;;16.92;9.93;;;;;;;;;;10151517;29;20055;-87
2023/03/20 07:45:18;;;;;;;13.63;8.27;;;;;;;;;;10143393;29;20048;-86
2023/03/20 07:50:23;;;;;;;13.82;8.57;;;;;;;;;;10140414;29;20467;-83
2023/03/20 07:55:26;;;;;;;12.85;7.75;;;;;;;;;;10123942;29;20756;-83
2023/03/20 08:00:30;;;;;;;13.63;7.72;;;;;;;;;;10126889;29;20040;-83
2023/03/20 08:05:34;;;;;;;15.63;9.38;;;;;;;;;;10139242;29;20040;-83
2023/03/20 08:10:38;;;;;;;13.05;7.63;;;;;;;;;;10140156;29;20543;-87
2023/03/20 08:15:42;;;;;;;12.48;6.57;;;;;;;;;;10162580;29;20127;-85
2023/03/20 08:20:46;;;;;;;11.45;6.80;;;;;;;;;;10148900;29;20052;-85
2023/03/20 08:25:51;;;;;;;11.60;7.03;;;;;;;;;;10154176;29;20131;-85
2023/03/20 08:30:55;;;;;;;9.63;6.53;;;;;;;;;;10162648;29;20067;-86
2023/03/20 08:36:00;;;;;;;9.30;6.35;;;;;;;;;;10167491;29;20063;-85
2023/03/20 08:41:05;;;;;;;9.20;6.27;;;;;;;;;;10156152;29;20118;-88
2023/03/20 08:46:10;;;;;;;21.70;11.83;;;;;;;;;;10169136;29;20056;-88
2023/03/20 08:51:15;;;;;;;16.25;10.60;;;;;;;;;;10174249;29;20142;-87
2023/03/20 08:56:18;;;;;;;11.75;8.02;;;;;;;;;;10154068;29;20079;-87
2023/03/20 09:01:23;;;;;;;21.33;12.45;;;;;;;;;;10190199;29;20098;-87
2023/03/20 09:06:32;;;;;;;15.25;9.98;;;;;;;;;;10191551;29;20047;-87
2023/03/20 09:11:36;;;;;;;10.70;6.63;;;;;;;;;;10182039;29;20047;-88
2023/03/20 09:16:43;;;;;;;9.63;6.43;;;;;;;;;;10176052;29;20048;-89
2023/03/20 09:21:48;;;;;;;;;;;;;;;;;;10177550;29;20048;-91
2023/03/20 09:26:52;;;;;;;13.20;8.00;;;;;;;;;;10422915;23;19922;-84
2023/03/20 09:31:57;;;;;;;12.60;8.25;;;;;;;;;;10252198;28;20043;-85
2023/03/20 09:37:03;;;;;;;11.07;7.63;;;;;;;;;;10267161;28;20086;-85
2023/03/20 09:42:17;;;;;;;5.75;3.95;;;;;;;;;;10223615;29;20051;-85
2023/03/20 09:47:30;;;;;;;8.57;6.15;;;;;;;;;;10231321;29;20047;-85
2023/03/20 09:52:37;;;;;;;5.85;4.75;;;;;;;;;;10240432;28;20498;-84
2023/03/20 09:57:43;;;;;;;9.35;4.90;;;;;;;;;;10254919;29;20055;-85
2023/03/20 10:02:49;;;;;;;6.63;4.22;;;;;;;;;;10235794;28;20111;-85
2023/03/20 10:07:56;;;;;;;5.65;4.05;;;;;;;;;;10266772;28;20068;-85
2023/03/20 10:13:09;;;;;;;7.57;4.65;;;;;;;;;;10254271;28;20055;-85
2023/03/20 10:18:21;;;;;;;7.45;4.75;;;;;;;;;;10235187;29;20054;-85
2023/03/20 10:23:34;;;;;;;5.72;3.70;;;;;;;;;;10230200;28;20090;-85
2023/03/20 10:28:46;;;;;;;8.25;4.97;;;;;;;;;;10239701;29;20055;-85
2023/03/20 10:34:03;;;;;;;9.02;4.05;;;;;;;;;;10251061;28;20051;-85
2023/03/20 10:39:13;;;;;;;7.57;4.38;;;;;;;;;;10246157;29;20040;-85
2023/03/20 10:44:22;;;;;;;5.25;3.58;;;;;;;;;;10241965;29;20031;-85
2023/03/20 10:49:34;;;;;;;6.93;4.32;;;;;;;;;;10237416;29;20071;-85
2023/03/20 10:54:41;;;;;;;7.60;3.83;;;;;;;;;;10247501;29;20072;-85
2023/03/20 10:59:49;;;;;;;5.35;3.42;;;;;;;;;;10232535;28;20051;-85
2023/03/20 11:04:52;;;;;;;3.45;2.70;;;;;;;;;;10252181;29;20455;-84
2023/03/20 11:10:15;;;;;;;4.50;3.22;;;;;;;;;;10277093;28;20075;-85
2023/03/20 11:15:25;;;;;;;4.95;3.20;;;;;;;;;;10227765;28;20079;-85
2023/03/20 11:20:34;;;;;;;3.65;2.33;;;;;;;;;;10228671;29;20051;-85
2023/03/20 11:25:48;;;;;;;6.40;3.03;;;;;;;;;;10274248;28;20057;-85
2023/03/20 11:30:58;;;;;;;6.95;3.85;;;;;;;;;;10247091;29;20048;-83
2023/03/20 11:36:22;;;;;;;5.70;3.33;;;;;;;;;;10242590;29;20059;-83
2023/03/20 11:41:29;;;;;;;5.72;3.22;;;;;;;;;;10239067;28;20079;-84
2023/03/20 11:46:33;;;;;;;2.70;1.83;;;;;;;;;;10256456;28;20563;-84
2023/03/20 11:51:37;;;;;;;3.33;1.83;;;;;;;;;;10240843;29;20040;-84
2023/03/20 11:56:52;;;;;;;4.95;2.55;;;;;;;;;;10244649;28;20055;-84
2023/03/20 12:01:57;;;;;;;4.53;3.25;;;;;;;;;;10258146;29;20055;-84
2023/03/20 12:07:09;;;;;;;2.95;2.17;;;;;;;;;;10267218;29;20051;-84
2023/03/20 12:12:21;;;;;;;3.97;1.60;;;;;;;;;;10257136;29;20107;-83
2023/03/20 12:17:42;;;;;;;2.95;2.15;;;;;;;;;;10225696;29;20039;-83
2023/03/20 12:22:53;;;;;;;4.88;3.20;;;;;;;;;;10241041;28;20065;-83
2023/03/20 12:28:05;;;;;;;3.75;2.70;;;;;;;;;;10265675;29;20058;-83
2023/03/20 12:33:15;;;;;;;4.32;2.80;;;;;;;;;;10261829;28;20051;-83
2023/03/20 12:38:26;;;;;;;5.05;2.80;;;;;;;;;;10245241;28;20057;-84
2023/03/20 12:43:40;;;;;;;4.28;2.05;;;;;;;;;;10227563;28;20071;-83
2023/03/20 12:48:54;;;;;;;3.20;2.03;;;;;;;;;;10241834;28;20043;-84
2023/03/20 12:54:10;;;;;;;3.45;2.20;;;;;;;;;;10239979;29;20059;-83
2023/03/20 12:59:21;;;;;;;4.53;2.85;;;;;;;;;;10241044;28;20039;-83
2023/03/20 13:04:46;;;;;;;2.63;1.70;;;;;;;;;;10250600;29;20060;-84
2023/03/20 13:10:02;;;;;;;2.97;1.83;;;;;;;;;;10249260;29;20062;-83
2023/03/20 13:15:21;;;;;;;4.65;2.58;;;;;;;;;;10227311;29;20075;-83
2023/03/20 13:20:28;;;;;;;3.10;1.90;;;;;;;;;;10234262;29;20040;-83
2023/03/20 13:25:45;;;;;;;4.53;2.15;;;;;;;;;;10223941;29;20063;-84
2023/03/20 13:30:55;;;;;;;2.88;2.10;;;;;;;;;;10239905;28;20043;-84
2023/03/20 13:36:04;;;;;;;3.72;2.03;;;;;;;;;;10228836;29;20115;-84
2023/03/20 13:41:09;;;;;;;4.65;1.85;;;;;;;;;;10242953;29;20027;-84
2023/03/20 13:46:18;;;;;;;3.22;2.05;;;;;;;;;;10256532;29;20047;-83
2023/03/20 13:51:29;;;;;;;4.18;2.60;;;;;;;;;;10254297;28;20111;-83
2023/03/20 13:56:40;;;;;;;4.07;2.60;;;;;;;;;;10253468;29;20115;-84
2023/03/20 14:01:52;;;;;;;4.53;2.58;;;;;;;;;;10247973;29;20055;-82
2023/03/20 14:06:57;;;;;;;3.90;2.53;;;;;;;;;;10236830;29;20060;-84
2023/03/20 14:12:06;;;;;;;3.15;2.00;;;;;;;;;;10245498;29;20051;-83
2023/03/20 14:17:17;;;;;;;5.50;2.85;;;;;;;;;;10268837;29;20055;-84
2023/03/20 14:22:22;;;;;;;4.57;2.35;;;;;;;;;;10266772;28;20123;-84
2023/03/20 14:27:29;;;;;;;4.53;2.53;;;;;;;;;;10251161;28;20072;-84
2023/03/20 14:32:59;;;;;;;4.57;2.70;;;;;;;;;;10259448;29;20048;-83
2023/03/20 14:38:18;;;;;;;3.83;2.67;;;;;;;;;;10242405;28;20063;-84
2023/03/20 14:43:35;;;;;;;4.53;2.67;;;;;;;;;;10245669;28;20711;-83
2023/03/20 14:48:45;;;;;;;3.35;2.30;;;;;;;;;;10232649;28;20047;-84
2023/03/20 14:53:55;;;;;;;6.63;3.10;;;;;;;;;;10240839;28;20147;-85
2023/03/20 14:59:04;;;;;;;8.13;3.17;;;;;;;;;;10235650;28;20047;-85
2023/03/20 15:04:15;;;;;;;6.72;3.47;;;;;;;;;;10238132;29;20074;-84
2023/03/20 15:09:22;;;;;;;6.28;3.30;;;;;;;;;;10239787;28;20047;-84
2023/03/20 15:14:28;;;;;;;4.35;2.97;;;;;;;;;;10242420;29;20051;-85
2023/03/20 15:19:39;;;;;;;6.50;3.25;;;;;;;;;;10228153;29;20047;-84
2023/03/20 15:24:42;;;;;;;4.00;2.70;;;;;;;;;;10238413;23;20118;-83
2023/03/20 15:29:49;;;;;;;2.95;1.80;;;;;;;;;;10210289;28;20160;-83
2023/03/20 15:34:54;;;;;;;4.80;1.95;;;;;;;;;;10187467;28;20115;-82
2023/03/20 15:39:59;;;;;;;4.50;2.00;;;;;;;;;;10170307;29;20428;-83
2023/03/20 15:45:02;;;;;;;3.85;2.00;;;;;;;;;;10175628;29;20059;-83
2023/03/20 15:50:14;;;;;;;3.63;2.05;;;;;;;;;;10163470;29;20047;-82
2023/03/20 15:55:19;;;;;;;4.10;1.77;;;;;;;;;;10146659;29;20366;-82
2023/03/20 16:00:28;;;;;;;3.05;1.55;;;;;;;;;;10160779;29;20079;-83
2023/03/20 16:05:35;;;;;;;8.75;2.20;;;;;;;;;;10159469;29;20077;-83
2023/03/20 16:10:43;;;;;;;2.90;1.77;;;;;;;;;;10159423;29;20050;-83
2023/03/20 16:15:46;;;;;;;7.00;2.72;;;;;;;;;;10161320;29;20860;-83
2023/03/20 16:20:54;;;;;;;2.35;1.30;;;;;;;;;;10176552;29;20044;-83
2023/03/20 16:25:58;;;;;;;3.22;1.98;;;;;;;;;;10168143;29;20044;-82
2023/03/20 16:31:08;;;;;;;5.75;2.10;;;;;;;;;;10158006;29;20063;-82
2023/03/20 16:36:19;;;;;;;8.20;2.35;;;;;;;;;;10173590;29;20816;-82
2023/03/20 16:41:29;;;;;;;4.43;1.73;;;;;;;;;;10179731;29;20062;-83
2023/03/20 16:46:32;;;;;;;5.15;2.40;;;;;;;;;;10175489;29;20048;-84
2023/03/20 16:51:37;;;;;;;6.05;2.42;;;;;;;;;;10171721;29;20065;-83
2023/03/20 16:56:40;;;;;;;4.43;2.00;;;;;;;;;;10154439;29;20039;-83
2023/03/20 17:01:47;;;;;;;3.33;2.33;;;;;;;;;;10190749;29;20457;-84
2023/03/20 17:06:55;;;;;;;5.78;2.20;;;;;;;;;;10187986;29;20083;-83
2023/03/20 17:12:03;;;;;;;2.97;1.45;;;;;;;;;;10166632;29;20503;-84
2023/03/20 17:17:11;;;;;;;4.05;1.42;;;;;;;;;;10159176;29;20058;-83
2023/03/20 17:22:18;;;;;;;4.70;1.65;;;;;;;;;;10184253;29;20498;-83
2023/03/20 17:27:22;;;;;;;1.63;1.00;;;;;;;;;;10163873;29;20059;-83
2023/03/20 17:32:25;;;;;;;2.67;1.30;;;;;;;;;;10158419;29;20048;-84
2023/03/20 17:37:30;;;;;;;2.63;0.95;;;;;;;;;;10174228;29;20581;-83
2023/03/20 17:42:34;;;;;;;1.85;0.90;;;;;;;;;;10167710;29;20059;-83
2023/03/20 17:47:37;;;;;;;0.98;0.80;;;;;;;;;;10167293;29;20503;-84
2023/03/20 17:52:42;;;;;;;2.00;0.60;;;;;;;;;;10153454;29;20461;-84
2023/03/20 17:57:47;;;;;;;1.85;0.75;;;;;;;;;;10154493;29;20044;-84
2023/03/20 18:02:51;;;;;;;1.67;0.60;;;;;;;;;;10168546;29;20046;-83
2023/03/20 18:07:56;;;;;;;2.75;1.08;;;;;;;;;;10158319;29;20054;-83
2023/03/20 18:12:59;;;;;;;1.75;0.80;;;;;;;;;;10179405;29;20702;-83
2023/03/20 18:18:06;;;;;;;1.73;0.85;;;;;;;;;;10175151;29;20048;-84
2023/03/20 18:23:11;;;;;;;2.20;0.82;;;;;;;;;;10184981;28;20074;-82
2023/03/20 18:28:21;;;;;;;1.50;1.08;;;;;;;;;;10173588;29;20059;-84
2023/03/20 18:33:26;;;;;;;2.47;1.30;;;;;;;;;;10184717;29;20071;-83
2023/03/20 18:38:32;;;;;;;1.60;1.02;;;;;;;;;;10165410;29;20057;-83
2023/03/20 18:43:38;;;;;;;1.45;0.70;;;;;;;;;;10169309;29;20541;-84
2023/03/20 18:48:43;;;;;;;1.67;0.77;;;;;;;;;;10184265;29;20048;-84
2023/03/20 18:53:48;;;;;;;4.28;1.00;;;;;;;;;;10183557;29;20046;-84
2023/03/20 18:58:53;;;;;;;1.75;0.80;;;;;;;;;;10196660;29;20044;-83
2023/03/20 19:03:58;;;;;;;2.35;1.10;;;;;;;;;;10202357;29;20051;-83
2023/03/20 19:09:06;;;;;;;2.78;1.00;;;;;;;;;;10194776;29;20043;-83
2023/03/20 19:14:13;;;;;;;1.40;0.80;;;;;;;;;;10219585;28;20039;-83
2023/03/20 19:19:19;;;;;;;2.45;0.90;;;;;;;;;;10205855;29;20054;-83
2023/03/20 19:24:26;;;;;;;1.65;1.00;;;;;;;;;;10175620;29;20070;-82
2023/03/20 19:29:32;;;;;;;1.55;0.73;;;;;;;;;;10201428;29;20044;-82
2023/03/20 19:34:36;;;;;;;1.92;0.82;;;;;;;;;;10198478;28;20048;-84
2023/03/20 19:40:01;;;;;;;3.30;0.98;;;;;;;;;;10213742;29;20048;-83
2023/03/20 19:45:09;;;;;;;1.80;0.87;;;;;;;;;;10185697;28;20081;-84
2023/03/20 19:50:28;;;;;;;4.18;1.20;;;;;;;;;;10189070;29;20147;-84
2023/03/20 19:55:34;;;;;;;1.35;1.10;;;;;;;;;;10200773;29;20043;-83
2023/03/20 20:00:41;;;;;;;2.85;1.40;;;;;;;;;;10193067;29;20040;-84
2023/03/20 20:06:03;;;;;;;3.78;1.25;;;;;;;;;;10203963;29;20304;-83
2023/03/20 20:11:10;;;;;;;1.25;1.00;;;;;;;;;;10196380;29;20128;-83
2023/03/20 20:16:14;;;;;;;2.90;1.40;;;;;;;;;;10178933;29;20378;-83
2023/03/20 20:21:17;;;;;;;2.25;0.85;;;;;;;;;;10184358;29;20079;-84
2023/03/20 20:26:45;;;;;;;1.85;1.08;;;;;;;;;;10198887;29;20066;-84
2023/03/20 20:31:56;;;;;;;3.35;1.83;;;;;;;;;;10195464;29;20118;-84
2023/03/20 20:36:59;;;;;;;2.60;1.10;;;;;;;;;;10215656;29;20320;-83
2023/03/20 20:42:25;;;;;;;2.22;1.65;;;;;;;;;;10193130;29;20044;-83
2023/03/20 20:47:28;;;;;;;3.47;1.83;;;;;;;;;;10192111;29;20050;-83
2023/03/20 20:52:36;;;;;;;1.73;1.38;;;;;;;;;;10225079;28;20039;-84
2023/03/20 20:57:42;;;;;;;5.18;2.20;;;;;;;;;;10208136;29;20490;-83
2023/03/20 21:02:46;;;;;;;5.72;1.95;;;;;;;;;;10219527;28;20724;-83
2023/03/20 21:07:51;;;;;;;2.90;1.50;;;;;;;;;;10206064;29;20159;-87
2023/03/20 21:12:56;;;;;;;2.78;1.58;;;;;;;;;;10189332;29;20131;-87
2023/03/20 21:18:02;;;;;;;3.85;2.00;;;;;;;;;;10186599;29;20044;-86
2023/03/20 21:23:05;;;;;;;3.42;1.73;;;;;;;;;;10194535;29;20043;-87
2023/03/20 21:28:12;;;;;;;2.40;1.58;;;;;;;;;;10193252;29;20056;-87
2023/03/20 21:33:15;;;;;;;;;;;;;;;;;;10212955;28;20115;-86
2023/03/20 21:38:20;;;;;;;2.85;1.15;;;;;;;;;;10204944;29;19922;-86
2023/03/20 21:43:45;;;;;;;3.70;1.20;;;;;;;;;;10217282;28;20067;-87
2023/03/20 21:48:48;;;;;;;1.92;1.10;;;;;;;;;;10187534;29;20515;-84
2023/03/20 21:54:12;;;;;;;2.60;1.27;;;;;;;;;;10186803;29;20055;-84
2023/03/20 21:59:37;;;;;;;3.42;1.23;;;;;;;;;;10196278;29;20040;-84
2023/03/20 22:05:00;;;;;;;2.03;1.42;;;;;;;;;;10179678;29;20508;-84
2023/03/20 22:10:24;;;;;;;4.15;1.10;;;;;;;;;;10196378;29;21527;-86
2023/03/20 22:15:49;;;;;;;1.67;1.00;;;;;;;;;;10184005;29;20044;-87
2023/03/20 22:21:13;;;;;;;1.13;1.02;;;;;;;;;;10205430;29;20078;-87
2023/03/20 22:26:36;;;;;;;1.45;0.85;;;;;;;;;;10202330;29;20047;-87
2023/03/20 22:32:01;;;;;;;2.10;0.73;;;;;;;;;;10215787;29;20339;-87
2023/03/20 22:37:25;;;;;;;1.13;0.80;;;;;;;;;;10199860;29;20051;-87
2023/03/20 22:42:51;;;;;;;1.77;0.80;;;;;;;;;;10199360;29;20051;-88
2023/03/20 22:48:16;;;;;;;2.88;1.10;;;;;;;;;;10203694;29;20052;-86
2023/03/20 22:53:20;;;;;;;1.73;0.90;;;;;;;;;;10207630;29;20120;-88
2023/03/20 22:58:23;;;;;;;4.00;1.40;;;;;;;;;;10213745;29;20071;-87
2023/03/20 23:03:28;;;;;;;2.45;1.05;;;;;;;;;;10186566;29;20043;-85
2023/03/20 23:08:43;;;;;;;1.90;1.17;;;;;;;;;;10201590;29;20052;-85
2023/03/20 23:13:55;;;;;;;2.28;1.67;;;;;;;;;;10180402;28;20131;-85
2023/03/20 23:19:00;;;;;;;4.22;1.10;;;;;;;;;;10196762;29;20432;-84
2023/03/20 23:24:04;;;;;;;1.73;0.93;;;;;;;;;;10199764;29;20131;-84
2023/03/20 23:29:08;;;;;;;2.08;1.10;;;;;;;;;;10196769;29;20048;-84
2023/03/20 23:34:13;;;;;;;1.15;0.85;;;;;;;;;;10195847;29;20040;-84
2023/03/20 23:39:18;;;;;;;2.53;1.15;;;;;;;;;;10192475;29;20048;-83
2023/03/20 23:44:22;;;;;;;2.78;1.20;;;;;;;;;;10203354;29;20071;-84
2023/03/20 23:49:26;;;;;;;1.40;0.98;;;;;;;;;;10208222;29;20146;-84
2023/03/20 23:54:30;;;;;;;2.13;1.00;;;;;;;;;;10196388;29;20040;-83
2023/03/20 23:59:36;;;;;;;1.98;1.05;;;;;;;;;;10196055;29;20043;-85
